VLG42CT EHAM-LEBL
Flight info
| Callsign | VLG42CT |
|---|---|
| Flight time | N/A |
| Altitude | 31000 |
| Route | KUDAD3S WOODY N872 MEDIL/N0452F350 DCT KOVIN DCT DUCRA UM728 RESMI UN857 DISAK DCT DIRMO DCT VALKU DCT ATSUP DCT MINSO DCT DEGOL DCT PPG DCT ALBER ALBER2E |
| Aircraft | A321/M-SDE3FGHIRWY/L |
Departure
| Time | N/A |
|---|---|
| Airport | Amsterdam Airport Schiphol (EHAM) |
Arrival
| Time | 2026-05-03 21:58 |
|---|---|
| Airport | Josep Tarradellas Barcelona-El Prat Airport (LEBL) |
| Time | Latitude | Longitude | Altitude | Speed | Heading |
|---|---|---|---|---|---|
| 2026-05-03 20:30 | 49.35601 | 2.97439 | 34945 ft | 393 kts | 215° |
| 2026-05-03 20:30 | 49.31038 | 2.92822 | 34948 ft | 393 kts | 215° |
| 2026-05-03 20:31 | 49.26473 | 2.88205 | 34936 ft | 393 kts | 215° |
| 2026-05-03 20:31 | 49.21908 | 2.83616 | 34948 ft | 393 kts | 215° |
| 2026-05-03 20:32 | 49.17338 | 2.79028 | 34943 ft | 392 kts | 215° |
| 2026-05-03 20:32 | 49.12771 | 2.74451 | 34948 ft | 392 kts | 215° |
| 2026-05-03 20:33 | 49.08203 | 2.69879 | 34949 ft | 393 kts | 215° |
| 2026-05-03 20:33 | 49.03631 | 2.65306 | 34937 ft | 393 kts | 215° |
| 2026-05-03 20:34 | 48.99056 | 2.60753 | 34946 ft | 392 kts | 214° |
| 2026-05-03 20:34 | 48.94484 | 2.56216 | 34948 ft | 392 kts | 214° |
| 2026-05-03 20:35 | 48.89913 | 2.51685 | 34946 ft | 392 kts | 214° |
| 2026-05-03 20:35 | 48.85373 | 2.47189 | 34947 ft | 392 kts | 214° |
| 2026-05-03 20:36 | 48.80804 | 2.42671 | 34949 ft | 392 kts | 214° |
| 2026-05-03 20:36 | 48.76230 | 2.38162 | 34947 ft | 392 kts | 214° |
| 2026-05-03 20:37 | 48.71656 | 2.33669 | 34975 ft | 392 kts | 214° |
| 2026-05-03 20:37 | 48.67085 | 2.29184 | 34975 ft | 392 kts | 214° |
| 2026-05-03 20:38 | 48.62506 | 2.24697 | 34961 ft | 392 kts | 214° |
| 2026-05-03 20:38 | 48.57885 | 2.20325 | 34966 ft | 393 kts | 209° |
| 2026-05-03 20:39 | 48.52641 | 2.17812 | 34966 ft | 399 kts | 196° |
| 2026-05-03 20:39 | 48.47207 | 2.16068 | 34953 ft | 399 kts | 196° |
| 2026-05-03 20:40 | 48.41823 | 2.14332 | 34952 ft | 397 kts | 196° |
| 2026-05-03 20:40 | 48.36417 | 2.12591 | 34953 ft | 397 kts | 196° |
| 2026-05-03 20:41 | 48.31013 | 2.10858 | 34953 ft | 397 kts | 195° |
| 2026-05-03 20:41 | 48.25427 | 2.10588 | 34953 ft | 410 kts | 178° |
| 2026-05-03 20:42 | 48.19780 | 2.11797 | 34954 ft | 410 kts | 178° |
| 2026-05-03 20:42 | 48.14148 | 2.12994 | 34979 ft | 412 kts | 179° |
| 2026-05-03 20:43 | 48.08456 | 2.13453 | 34987 ft | 410 kts | 184° |
| 2026-05-03 20:43 | 48.02732 | 2.13789 | 34993 ft | 411 kts | 184° |
| 2026-05-03 20:44 | 47.97010 | 2.14132 | 34995 ft | 412 kts | 184° |
| 2026-05-03 20:44 | 47.91289 | 2.14472 | 35004 ft | 412 kts | 184° |
| 2026-05-03 20:45 | 47.85563 | 2.14803 | 35003 ft | 412 kts | 184° |
| 2026-05-03 20:45 | 47.79837 | 2.15136 | 34961 ft | 412 kts | 184° |
| 2026-05-03 20:46 | 47.74116 | 2.15463 | 34967 ft | 411 kts | 184° |
| 2026-05-03 20:46 | 47.68400 | 2.15794 | 34958 ft | 411 kts | 184° |
| 2026-05-03 20:47 | 47.62716 | 2.16127 | 34966 ft | 411 kts | 184° |
| 2026-05-03 20:47 | 47.56999 | 2.16456 | 34967 ft | 411 kts | 184° |
| 2026-05-03 20:48 | 47.51279 | 2.16790 | 34967 ft | 411 kts | 184° |
| 2026-05-03 20:48 | 47.45575 | 2.17118 | 34982 ft | 410 kts | 184° |
| 2026-05-03 20:49 | 47.39867 | 2.17447 | 34980 ft | 411 kts | 184° |
| 2026-05-03 20:49 | 47.34153 | 2.17783 | 34981 ft | 411 kts | 184° |
| 2026-05-03 20:50 | 47.28470 | 2.18106 | 34987 ft | 411 kts | 184° |
| 2026-05-03 20:50 | 47.22757 | 2.18431 | 34989 ft | 411 kts | 184° |
| 2026-05-03 20:51 | 47.17050 | 2.18756 | 34986 ft | 411 kts | 184° |
| 2026-05-03 20:51 | 47.11330 | 2.19099 | 34989 ft | 413 kts | 181° |
| 2026-05-03 20:52 | 47.05668 | 2.21098 | 34991 ft | 428 kts | 165° |
| 2026-05-03 20:52 | 47.00140 | 2.24356 | 34991 ft | 428 kts | 165° |
| 2026-05-03 20:53 | 46.94609 | 2.27590 | 34994 ft | 428 kts | 165° |
| 2026-05-03 20:53 | 46.89104 | 2.30792 | 35000 ft | 429 kts | 165° |
| 2026-05-03 20:54 | 46.84455 | 2.33483 | 35000 ft | 429 kts | 165° |
| 2026-05-03 20:54 | 46.76171 | 2.38287 | 35000 ft | 429 kts | 165° |
| 2026-05-03 20:55 | 46.70624 | 2.41496 | 34997 ft | 429 kts | 165° |
| 2026-05-03 20:55 | 46.65074 | 2.44700 | 35002 ft | 430 kts | 164° |
| 2026-05-03 20:56 | 46.59500 | 2.47901 | 35005 ft | 431 kts | 164° |
| 2026-05-03 20:56 | 46.53917 | 2.51098 | 34989 ft | 431 kts | 164° |
| 2026-05-03 20:57 | 46.48349 | 2.54285 | 35002 ft | 430 kts | 164° |
| 2026-05-03 20:57 | 46.42791 | 2.57474 | 35008 ft | 430 kts | 164° |
| 2026-05-03 20:58 | 46.37228 | 2.60650 | 35008 ft | 429 kts | 164° |
| 2026-05-03 20:58 | 46.31667 | 2.63806 | 35007 ft | 429 kts | 164° |
| 2026-05-03 20:59 | 46.26107 | 2.66955 | 35005 ft | 429 kts | 164° |
| 2026-05-03 20:59 | 46.20573 | 2.70089 | 35005 ft | 429 kts | 164° |
| 2026-05-03 21:00 | 46.15913 | 2.72733 | 35010 ft | 429 kts | 164° |
| 2026-05-03 21:00 | 46.09447 | 2.76380 | 35010 ft | 429 kts | 164° |
| 2026-05-03 21:01 | 46.03883 | 2.79509 | 35009 ft | 430 kts | 164° |
| 2026-05-03 21:01 | 45.98293 | 2.82637 | 35017 ft | 430 kts | 165° |
| 2026-05-03 21:02 | 45.92682 | 2.85633 | 35019 ft | 430 kts | 166° |
| 2026-05-03 21:02 | 45.87065 | 2.88550 | 35021 ft | 429 kts | 166° |
| 2026-05-03 21:03 | 45.81458 | 2.91481 | 35024 ft | 429 kts | 165° |
| 2026-05-03 21:03 | 45.75871 | 2.94298 | 35022 ft | 425 kts | 171° |
| 2026-05-03 21:04 | 45.70064 | 2.95165 | 35019 ft | 414 kts | 185° |
| 2026-05-03 21:04 | 45.64295 | 2.95003 | 35024 ft | 414 kts | 185° |
| 2026-05-03 21:05 | 45.58569 | 2.94845 | 35026 ft | 414 kts | 185° |
| 2026-05-03 21:05 | 45.52803 | 2.94694 | 35012 ft | 414 kts | 185° |
| 2026-05-03 21:06 | 45.47026 | 2.94548 | 35029 ft | 415 kts | 185° |
| 2026-05-03 21:06 | 45.41255 | 2.94401 | 35029 ft | 414 kts | 185° |
| 2026-05-03 21:07 | 45.35474 | 2.94248 | 35029 ft | 415 kts | 185° |
| 2026-05-03 21:07 | 45.29735 | 2.94091 | 35035 ft | 415 kts | 185° |
| 2026-05-03 21:08 | 45.23953 | 2.93936 | 35041 ft | 415 kts | 185° |
| 2026-05-03 21:08 | 45.18176 | 2.93791 | 35043 ft | 415 kts | 185° |
| 2026-05-03 21:09 | 45.12393 | 2.93644 | 35043 ft | 415 kts | 185° |
| 2026-05-03 21:09 | 45.06605 | 2.93490 | 35043 ft | 415 kts | 185° |
| 2026-05-03 21:10 | 45.00863 | 2.93334 | 35043 ft | 415 kts | 185° |
| 2026-05-03 21:10 | 44.95098 | 2.93188 | 35035 ft | 416 kts | 185° |
| 2026-05-03 21:11 | 44.89301 | 2.93041 | 35046 ft | 416 kts | 185° |
| 2026-05-03 21:11 | 44.83502 | 2.92870 | 35044 ft | 416 kts | 186° |
| 2026-05-03 21:12 | 44.77719 | 2.92491 | 35047 ft | 415 kts | 187° |
| 2026-05-03 21:12 | 44.71946 | 2.91998 | 35042 ft | 415 kts | 187° |
| 2026-05-03 21:13 | 44.66210 | 2.91542 | 35043 ft | 415 kts | 187° |
| 2026-05-03 21:13 | 44.60430 | 2.91124 | 35041 ft | 415 kts | 187° |
| 2026-05-03 21:14 | 44.54653 | 2.90708 | 35040 ft | 416 kts | 187° |
| 2026-05-03 21:14 | 44.48893 | 2.90288 | 35040 ft | 416 kts | 187° |
| 2026-05-03 21:15 | 44.43102 | 2.89865 | 35032 ft | 417 kts | 187° |
| 2026-05-03 21:15 | 44.37306 | 2.89447 | 35023 ft | 417 kts | 187° |
| 2026-05-03 21:16 | 44.31510 | 2.89031 | 35032 ft | 417 kts | 187° |
| 2026-05-03 21:16 | 44.25708 | 2.88615 | 35032 ft | 417 kts | 187° |
| 2026-05-03 21:17 | 44.20890 | 2.88276 | 35029 ft | 417 kts | 187° |
| 2026-05-03 21:17 | 44.14158 | 2.87787 | 35025 ft | 417 kts | 187° |
| 2026-05-03 21:18 | 44.08356 | 2.87369 | 35024 ft | 417 kts | 187° |
| 2026-05-03 21:18 | 44.02551 | 2.86956 | 35022 ft | 417 kts | 187° |
| 2026-05-03 21:19 | 43.96751 | 2.86543 | 35022 ft | 418 kts | 187° |
| 2026-05-03 21:19 | 43.90934 | 2.86126 | 35024 ft | 418 kts | 186° |
| 2026-05-03 21:20 | 43.85113 | 2.85713 | 35025 ft | 419 kts | 186° |
| 2026-05-03 21:20 | 43.79290 | 2.85301 | 35018 ft | 418 kts | 186° |
| 2026-05-03 21:21 | 43.73485 | 2.85107 | 35033 ft | 420 kts | 183° |
| 2026-05-03 21:21 | 43.67616 | 2.85270 | 35028 ft | 421 kts | 182° |
| 2026-05-03 21:22 | 43.61758 | 2.85472 | 35031 ft | 421 kts | 182° |
| 2026-05-03 21:22 | 43.55912 | 2.85583 | 35032 ft | 421 kts | 183° |
| 2026-05-03 21:23 | 43.50043 | 2.85638 | 35032 ft | 422 kts | 183° |
| 2026-05-03 21:23 | 43.44170 | 2.85705 | 35038 ft | 422 kts | 183° |
| 2026-05-03 21:24 | 43.38296 | 2.85786 | 35026 ft | 422 kts | 183° |
| 2026-05-03 21:24 | 43.32454 | 2.85877 | 35034 ft | 423 kts | 183° |
| 2026-05-03 21:25 | 43.26565 | 2.85969 | 35031 ft | 423 kts | 183° |
| 2026-05-03 21:25 | 43.20677 | 2.86060 | 35032 ft | 423 kts | 183° |
| 2026-05-03 21:26 | 43.14794 | 2.86138 | 35030 ft | 422 kts | 183° |
| 2026-05-03 21:26 | 43.08961 | 2.86216 | 35030 ft | 421 kts | 183° |
| 2026-05-03 21:27 | 43.03096 | 2.86301 | 35024 ft | 421 kts | 183° |
| 2026-05-03 21:27 | 42.97223 | 2.86393 | 35011 ft | 421 kts | 183° |
| 2026-05-03 21:28 | 42.91377 | 2.86477 | 34915 ft | 419 kts | 183° |
| 2026-05-03 21:28 | 42.88462 | 2.86521 | 34673 ft | 418 kts | 183° |
| 2026-05-03 21:28 | 42.85559 | 2.86562 | 34435 ft | 417 kts | 183° |
| 2026-05-03 21:29 | 42.82698 | 2.86602 | 34160 ft | 416 kts | 182° |
| 2026-05-03 21:29 | 42.79798 | 2.86643 | 33252 ft | 418 kts | 182° |
| 2026-05-03 21:29 | 42.76889 | 2.86683 | 32428 ft | 418 kts | 182° |
| 2026-05-03 21:29 | 42.73970 | 2.86592 | 31462 ft | 419 kts | 188° |
| 2026-05-03 21:30 | 42.71064 | 2.86241 | 30624 ft | 420 kts | 188° |
| 2026-05-03 21:30 | 42.68140 | 2.85891 | 29575 ft | 424 kts | 188° |
| 2026-05-03 21:30 | 42.65190 | 2.85541 | 28510 ft | 426 kts | 187° |
| 2026-05-03 21:30 | 42.62232 | 2.85196 | 27562 ft | 427 kts | 187° |
| 2026-05-03 21:31 | 42.59262 | 2.84852 | 26474 ft | 430 kts | 187° |
| 2026-05-03 21:31 | 42.56290 | 2.84506 | 25810 ft | 425 kts | 188° |
| 2026-05-03 21:31 | 42.53376 | 2.84168 | 25382 ft | 414 kts | 188° |
| 2026-05-03 21:31 | 42.50572 | 2.83846 | 25257 ft | 396 kts | 188° |
| 2026-05-03 21:32 | 42.47875 | 2.83536 | 24963 ft | 384 kts | 188° |
| 2026-05-03 21:32 | 42.45240 | 2.83213 | 24650 ft | 376 kts | 191° |
| 2026-05-03 21:32 | 42.42677 | 2.82604 | 24421 ft | 373 kts | 193° |
| 2026-05-03 21:32 | 42.40121 | 2.81962 | 24172 ft | 373 kts | 193° |
| 2026-05-03 21:33 | 42.37576 | 2.81331 | 23769 ft | 371 kts | 193° |
| 2026-05-03 21:33 | 42.35071 | 2.80718 | 23308 ft | 369 kts | 193° |
| 2026-05-03 21:33 | 42.32548 | 2.80103 | 22882 ft | 368 kts | 193° |
| 2026-05-03 21:33 | 42.30035 | 2.79493 | 22470 ft | 366 kts | 193° |
| 2026-05-03 21:34 | 42.27538 | 2.78880 | 22049 ft | 363 kts | 193° |
| 2026-05-03 21:34 | 42.25055 | 2.78268 | 21642 ft | 361 kts | 193° |
| 2026-05-03 21:34 | 42.22592 | 2.77662 | 21231 ft | 359 kts | 193° |
| 2026-05-03 21:34 | 42.20138 | 2.77064 | 20823 ft | 357 kts | 193° |
| 2026-05-03 21:35 | 42.17698 | 2.76469 | 20425 ft | 355 kts | 193° |
| 2026-05-03 21:35 | 42.15319 | 2.75657 | 20019 ft | 350 kts | 202° |
| 2026-05-03 21:35 | 42.13134 | 2.74229 | 19632 ft | 346 kts | 213° |
| 2026-05-03 21:35 | 42.11236 | 2.72262 | 19245 ft | 343 kts | 224° |
| 2026-05-03 21:36 | 42.09629 | 2.69899 | 18856 ft | 341 kts | 229° |
| 2026-05-03 21:36 | 42.08085 | 2.67535 | 18475 ft | 340 kts | 229° |
| 2026-05-03 21:36 | 42.06505 | 2.65126 | 18051 ft | 337 kts | 228° |
| 2026-05-03 21:36 | 42.04974 | 2.62800 | 17661 ft | 336 kts | 228° |
| 2026-05-03 21:37 | 42.03426 | 2.60457 | 17276 ft | 334 kts | 228° |
| 2026-05-03 21:37 | 42.01885 | 2.58124 | 16902 ft | 332 kts | 228° |
| 2026-05-03 21:37 | 42.00357 | 2.55814 | 16532 ft | 331 kts | 228° |
| 2026-05-03 21:37 | 41.98831 | 2.53506 | 16150 ft | 329 kts | 228° |
| 2026-05-03 21:38 | 41.97314 | 2.51213 | 15780 ft | 328 kts | 229° |
| 2026-05-03 21:38 | 41.95802 | 2.48925 | 15402 ft | 326 kts | 229° |
| 2026-05-03 21:38 | 41.94304 | 2.46656 | 15027 ft | 323 kts | 229° |
| 2026-05-03 21:38 | 41.92813 | 2.44400 | 14670 ft | 322 kts | 229° |
| 2026-05-03 21:39 | 41.91330 | 2.42161 | 14311 ft | 320 kts | 229° |
| 2026-05-03 21:39 | 41.89868 | 2.39958 | 13948 ft | 319 kts | 229° |
| 2026-05-03 21:39 | 41.88396 | 2.37737 | 13554 ft | 317 kts | 229° |
| 2026-05-03 21:39 | 41.86931 | 2.35526 | 13189 ft | 317 kts | 229° |
| 2026-05-03 21:40 | 41.85468 | 2.33319 | 12827 ft | 316 kts | 229° |
| 2026-05-03 21:40 | 41.84006 | 2.31117 | 12464 ft | 315 kts | 229° |
| 2026-05-03 21:40 | 41.82550 | 2.28926 | 12119 ft | 314 kts | 229° |
| 2026-05-03 21:40 | 41.81100 | 2.26748 | 11754 ft | 312 kts | 229° |
| 2026-05-03 21:41 | 41.80139 | 2.25306 | 11524 ft | 312 kts | 229° |
| 2026-05-03 21:41 | 41.78695 | 2.23139 | 11163 ft | 311 kts | 228° |
| 2026-05-03 21:41 | 41.77091 | 2.21198 | 10808 ft | 311 kts | 216° |
| 2026-05-03 21:41 | 41.75192 | 2.19818 | 10447 ft | 311 kts | 203° |
| 2026-05-03 21:42 | 41.73163 | 2.19001 | 10285 ft | 298 kts | 197° |
| 2026-05-03 21:42 | 41.71210 | 2.18273 | 10114 ft | 286 kts | 197° |
| 2026-05-03 21:42 | 41.69317 | 2.17555 | 9917 ft | 280 kts | 198° |
| 2026-05-03 21:42 | 41.67442 | 2.16839 | 9789 ft | 280 kts | 198° |
| 2026-05-03 21:43 | 41.65570 | 2.16124 | 9665 ft | 280 kts | 198° |
| 2026-05-03 21:43 | 41.63697 | 2.15409 | 9454 ft | 279 kts | 198° |
| 2026-05-03 21:43 | 41.61834 | 2.14700 | 9209 ft | 278 kts | 198° |
| 2026-05-03 21:43 | 41.59972 | 2.13994 | 8960 ft | 277 kts | 198° |
| 2026-05-03 21:44 | 41.58121 | 2.13295 | 8714 ft | 276 kts | 198° |
| 2026-05-03 21:44 | 41.56278 | 2.12598 | 8467 ft | 275 kts | 198° |
| 2026-05-03 21:44 | 41.54438 | 2.11904 | 8212 ft | 274 kts | 197° |
| 2026-05-03 21:44 | 41.52610 | 2.11181 | 7974 ft | 273 kts | 202° |
| 2026-05-03 21:45 | 41.50948 | 2.10025 | 7737 ft | 270 kts | 216° |
| 2026-05-03 21:45 | 41.49510 | 2.08669 | 7506 ft | 269 kts | 216° |
| 2026-05-03 21:45 | 41.47983 | 2.07243 | 7250 ft | 268 kts | 216° |
| 2026-05-03 21:45 | 41.46452 | 2.05817 | 7005 ft | 267 kts | 216° |
| 2026-05-03 21:46 | 41.44930 | 2.04404 | 6758 ft | 266 kts | 216° |
| 2026-05-03 21:46 | 41.43409 | 2.02996 | 6508 ft | 265 kts | 216° |
| 2026-05-03 21:46 | 41.41896 | 2.01595 | 6283 ft | 264 kts | 216° |
| 2026-05-03 21:46 | 41.40387 | 2.00198 | 6034 ft | 264 kts | 216° |
| 2026-05-03 21:47 | 41.38883 | 1.98804 | 5799 ft | 263 kts | 216° |
| 2026-05-03 21:47 | 41.37384 | 1.97415 | 5550 ft | 262 kts | 216° |
| 2026-05-03 21:47 | 41.35894 | 1.96035 | 5291 ft | 261 kts | 215° |
| 2026-05-03 21:47 | 41.34401 | 1.94656 | 5052 ft | 261 kts | 215° |
| 2026-05-03 21:48 | 41.32934 | 1.93300 | 4829 ft | 252 kts | 215° |
| 2026-05-03 21:48 | 41.31513 | 1.91985 | 4594 ft | 248 kts | 214° |
| 2026-05-03 21:48 | 41.30114 | 1.90695 | 4371 ft | 248 kts | 214° |
| 2026-05-03 21:48 | 41.28698 | 1.89389 | 4243 ft | 248 kts | 214° |
| 2026-05-03 21:49 | 41.27275 | 1.88077 | 4138 ft | 248 kts | 214° |
| 2026-05-03 21:49 | 41.25886 | 1.86798 | 4037 ft | 240 kts | 214° |
| 2026-05-03 21:49 | 41.24522 | 1.85543 | 3928 ft | 238 kts | 214° |
| 2026-05-03 21:49 | 41.23163 | 1.84293 | 3825 ft | 237 kts | 214° |
| 2026-05-03 21:50 | 41.21810 | 1.83046 | 3718 ft | 237 kts | 214° |
| 2026-05-03 21:50 | 41.20454 | 1.81797 | 3623 ft | 236 kts | 214° |
| 2026-05-03 21:50 | 41.19102 | 1.80550 | 3571 ft | 237 kts | 214° |
| 2026-05-03 21:50 | 41.17744 | 1.79296 | 3515 ft | 237 kts | 214° |
| 2026-05-03 21:51 | 41.16393 | 1.78049 | 3469 ft | 236 kts | 214° |
| 2026-05-03 21:51 | 41.15042 | 1.76798 | 3409 ft | 236 kts | 214° |
| 2026-05-03 21:51 | 41.13685 | 1.75620 | 3356 ft | 236 kts | 204° |
| 2026-05-03 21:51 | 41.12089 | 1.75390 | 3303 ft | 235 kts | 165° |
| 2026-05-03 21:52 | 41.10742 | 1.76573 | 3248 ft | 238 kts | 126° |
| 2026-05-03 21:52 | 41.10262 | 1.78651 | 3198 ft | 243 kts | 86° |
| 2026-05-03 21:52 | 41.10882 | 1.80703 | 3143 ft | 245 kts | 47° |
| 2026-05-03 21:52 | 41.12247 | 1.82051 | 3089 ft | 246 kts | 28° |
| 2026-05-03 21:53 | 41.13802 | 1.83017 | 3032 ft | 247 kts | 23° |
| 2026-05-03 21:53 | 41.15386 | 1.83903 | 2969 ft | 247 kts | 23° |
| 2026-05-03 21:53 | 41.16954 | 1.84819 | 2989 ft | 246 kts | 25° |
| 2026-05-03 21:53 | 41.18504 | 1.85796 | 2993 ft | 246 kts | 26° |
| 2026-05-03 21:54 | 41.20036 | 1.86823 | 2985 ft | 247 kts | 28° |
| 2026-05-03 21:54 | 41.21552 | 1.87884 | 2984 ft | 246 kts | 28° |
| 2026-05-03 21:54 | 41.22997 | 1.89092 | 2916 ft | 247 kts | 45° |
| 2026-05-03 21:54 | 41.23923 | 1.90954 | 2651 ft | 240 kts | 66° |
| 2026-05-03 21:55 | 41.24600 | 1.92949 | 2353 ft | 230 kts | 66° |
| 2026-05-03 21:55 | 41.25215 | 1.94763 | 2064 ft | 201 kts | 66° |
| 2026-05-03 21:55 | 41.25756 | 1.96339 | 1827 ft | 174 kts | 66° |
| 2026-05-03 21:55 | 41.26230 | 1.97719 | 1583 ft | 155 kts | 66° |
| 2026-05-03 21:56 | 41.26662 | 1.98972 | 1368 ft | 145 kts | 65° |
| 2026-05-03 21:56 | 41.27062 | 2.00175 | 1169 ft | 140 kts | 66° |
| 2026-05-03 21:56 | 41.27434 | 2.01348 | 955 ft | 141 kts | 66° |
| 2026-05-03 21:56 | 41.27862 | 2.02507 | 697 ft | 139 kts | 63° |
| 2026-05-03 21:57 | 41.28270 | 2.03677 | 567 ft | 140 kts | 64° |
| 2026-05-03 21:57 | 41.28682 | 2.04865 | 385 ft | 142 kts | 64° |
| 2026-05-03 21:57 | 41.29087 | 2.06068 | 208 ft | 142 kts | 63° |
| 2026-05-03 21:57 | 41.29499 | 2.07256 | 46 ft | 142 kts | 64° |
| 2026-05-03 21:58 | 41.29880 | 2.08352 | 7 ft | 106 kts | 66° |
| 2026-05-03 21:58 | 41.30109 | 2.09020 | 4 ft | 57 kts | 65° |
| 2026-05-03 21:58 | 41.30239 | 2.09394 | 4 ft | 40 kts | 64° |
| 2026-05-03 21:58 | 41.30351 | 2.09716 | 4 ft | 28 kts | 67° |
| 2026-05-03 21:59 | 41.30324 | 2.09821 | 4 ft | 7 kts | 137° |
| 2026-05-03 21:59 | 41.30291 | 2.09862 | 4 ft | 6 kts | 137° |
| 2026-05-03 21:59 | 41.30254 | 2.09881 | 3 ft | 6 kts | 163° |
| 2026-05-03 21:59 | 41.30213 | 2.09897 | 3 ft | 7 kts | 163° |
| 2026-05-03 22:00 | 41.30167 | 2.09915 | 5 ft | 7 kts | 163° |
| 2026-05-03 22:00 | 41.30124 | 2.09903 | 3 ft | 10 kts | 218° |
| 2026-05-03 22:00 | 41.30087 | 2.09813 | 3 ft | 11 kts | 247° |
| 2026-05-03 22:00 | 41.30056 | 2.09717 | 3 ft | 11 kts | 247° |
| 2026-05-03 22:01 | 41.30027 | 2.09624 | 3 ft | 11 kts | 247° |
| 2026-05-03 22:01 | 41.29996 | 2.09534 | 3 ft | 10 kts | 241° |
| 2026-05-03 22:01 | 41.29961 | 2.09450 | 3 ft | 10 kts | 241° |
| 2026-05-03 22:01 | 41.29927 | 2.09369 | 3 ft | 10 kts | 241° |
| 2026-05-03 22:02 | 41.29916 | 2.09342 | 3 ft | 10 kts | 241° |